sensor_id;sensor_type;location;lat;lon;timestamp;pressure;altitude;pressure_sealevel;temperature;humidity
44103;BME280;29769;42.178;24.742;2022-07-23T00:01:02;99694.22;;;21.42;94.90
44103;BME280;29769;42.178;24.742;2022-07-23T00:03:46;99698.34;;;21.48;95.74
44103;BME280;29769;42.178;24.742;2022-07-23T00:06:31;99710.03;;;21.31;98.12
44103;BME280;29769;42.178;24.742;2022-07-23T00:09:16;99712.41;;;21.06;99.36
44103;BME280;29769;42.178;24.742;2022-07-23T00:12:01;99712.63;;;20.71;100.00
44103;BME280;29769;42.178;24.742;2022-07-23T00:14:45;99715.81;;;20.62;100.00
44103;BME280;29769;42.178;24.742;2022-07-23T00:17:30;99714.84;;;20.48;100.00
44103;BME280;29769;42.178;24.742;2022-07-23T00:20:15;99713.28;;;20.44;100.00
44103;BME280;29769;42.178;24.742;2022-07-23T00:22:59;99713.22;;;20.28;100.00
44103;BME280;29769;42.178;24.742;2022-07-23T00:25:44;99717.66;;;20.12;100.00
44103;BME280;29769;42.178;24.742;2022-07-23T00:28:31;99712.75;;;19.87;100.00
44103;BME280;29769;42.178;24.742;2022-07-23T00:31:16;99717.59;;;19.80;100.00
44103;BME280;29769;42.178;24.742;2022-07-23T00:34:00;99707.03;;;19.77;100.00
44103;BME280;29769;42.178;24.742;2022-07-23T00:36:45;99712.25;;;19.80;100.00
44103;BME280;29769;42.178;24.742;2022-07-23T00:39:30;99708.94;;;19.75;100.00
44103;BME280;29769;42.178;24.742;2022-07-23T00:42:15;99704.63;;;19.73;100.00
44103;BME280;29769;42.178;24.742;2022-07-23T00:45:00;99717.34;;;19.68;100.00
44103;BME280;29769;42.178;24.742;2022-07-23T00:47:44;99705.50;;;19.56;100.00
44103;BME280;29769;42.178;24.742;2022-07-23T00:50:29;99714.03;;;19.63;100.00
44103;BME280;29769;42.178;24.742;2022-07-23T00:53:14;99715.38;;;19.71;100.00
44103;BME280;29769;42.178;24.742;2022-07-23T00:55:59;99719.38;;;19.80;100.00
44103;BME280;29769;42.178;24.742;2022-07-23T00:58:44;99720.78;;;19.87;100.00
44103;BME280;29769;42.178;24.742;2022-07-23T01:01:29;99720.31;;;19.79;100.00
44103;BME280;29769;42.178;24.742;2022-07-23T01:04:13;99719.94;;;19.69;100.00
44103;BME280;29769;42.178;24.742;2022-07-23T01:06:59;99721.22;;;19.62;100.00
44103;BME280;29769;42.178;24.742;2022-07-23T01:09:44;99715.69;;;19.65;100.00
44103;BME280;29769;42.178;24.742;2022-07-23T01:12:29;99720.78;;;19.70;100.00
44103;BME280;29769;42.178;24.742;2022-07-23T01:15:14;99714.66;;;19.68;100.00
44103;BME280;29769;42.178;24.742;2022-07-23T01:17:59;99722.59;;;19.69;100.00
44103;BME280;29769;42.178;24.742;2022-07-23T01:20:44;99710.81;;;19.73;100.00
44103;BME280;29769;42.178;24.742;2022-07-23T01:23:29;99712.78;;;19.70;100.00
44103;BME280;29769;42.178;24.742;2022-07-23T01:26:16;99711.22;;;19.66;100.00
44103;BME280;29769;42.178;24.742;2022-07-23T01:29:02;99713.34;;;19.59;100.00
44103;BME280;29769;42.178;24.742;2022-07-23T01:31:48;99722.63;;;19.52;100.00
44103;BME280;29769;42.178;24.742;2022-07-23T01:34:33;99717.72;;;19.43;100.00
44103;BME280;29769;42.178;24.742;2022-07-23T01:37:18;99718.53;;;19.26;100.00
44103;BME280;29769;42.178;24.742;2022-07-23T01:40:03;99712.19;;;19.12;100.00
44103;BME280;29769;42.178;24.742;2022-07-23T01:42:48;99714.22;;;19.06;100.00
44103;BME280;29769;42.178;24.742;2022-07-23T01:45:34;99723.09;;;19.07;100.00
44103;BME280;29769;42.178;24.742;2022-07-23T01:48:18;99717.53;;;19.12;100.00
44103;BME280;29769;42.178;24.742;2022-07-23T01:51:18;99723.50;;;19.17;100.00
44103;BME280;29769;42.178;24.742;2022-07-23T01:54:10;99716.22;;;19.20;100.00
44103;BME280;29769;42.178;24.742;2022-07-23T01:56:56;99717.06;;;19.21;100.00
44103;BME280;29769;42.178;24.742;2022-07-23T01:59:41;99718.78;;;19.22;100.00
44103;BME280;29769;42.178;24.742;2022-07-23T02:02:27;99717.94;;;19.21;100.00
44103;BME280;29769;42.178;24.742;2022-07-23T02:05:12;99717.31;;;19.16;100.00
44103;BME280;29769;42.178;24.742;2022-07-23T02:07:58;99715.00;;;19.08;100.00
44103;BME280;29769;42.178;24.742;2022-07-23T02:10:42;99714.28;;;19.05;100.00
44103;BME280;29769;42.178;24.742;2022-07-23T02:13:27;99718.13;;;18.99;100.00
44103;BME280;29769;42.178;24.742;2022-07-23T02:16:13;99717.69;;;18.90;100.00
44103;BME280;29769;42.178;24.742;2022-07-23T02:18:58;99717.84;;;18.87;100.00
44103;BME280;29769;42.178;24.742;2022-07-23T02:21:43;99722.31;;;18.86;100.00
44103;BME280;29769;42.178;24.742;2022-07-23T02:24:28;99721.31;;;18.89;100.00
44103;BME280;29769;42.178;24.742;2022-07-23T02:27:12;99714.19;;;18.89;100.00
44103;BME280;29769;42.178;24.742;2022-07-23T02:29:58;99710.44;;;18.93;100.00
44103;BME280;29769;42.178;24.742;2022-07-23T02:32:42;99717.34;;;18.97;100.00
44103;BME280;29769;42.178;24.742;2022-07-23T02:35:28;99719.84;;;19.00;100.00
44103;BME280;29769;42.178;24.742;2022-07-23T02:38:16;99723.03;;;18.90;100.00
44103;BME280;29769;42.178;24.742;2022-07-23T02:41:01;99724.28;;;18.83;100.00
44103;BME280;29769;42.178;24.742;2022-07-23T02:43:46;99723.69;;;18.76;100.00
44103;BME280;29769;42.178;24.742;2022-07-23T02:46:32;99725.53;;;18.76;100.00
44103;BME280;29769;42.178;24.742;2022-07-23T02:49:17;99728.09;;;18.77;100.00
44103;BME280;29769;42.178;24.742;2022-07-23T02:52:04;99727.88;;;18.82;100.00
44103;BME280;29769;42.178;24.742;2022-07-23T02:54:48;99736.50;;;18.87;100.00
44103;BME280;29769;42.178;24.742;2022-07-23T02:57:34;99730.09;;;18.91;100.00
44103;BME280;29769;42.178;24.742;2022-07-23T03:00:18;99730.03;;;18.92;100.00
44103;BME280;29769;42.178;24.742;2022-07-23T03:03:03;99728.28;;;18.91;100.00
44103;BME280;29769;42.178;24.742;2022-07-23T03:05:48;99735.66;;;18.86;100.00
44103;BME280;29769;42.178;24.742;2022-07-23T03:08:33;99730.69;;;18.79;100.00
44103;BME280;29769;42.178;24.742;2022-07-23T03:11:19;99729.41;;;18.69;100.00
44103;BME280;29769;42.178;24.742;2022-07-23T03:14:04;99735.75;;;18.66;100.00
44103;BME280;29769;42.178;24.742;2022-07-23T03:16:50;99736.53;;;18.68;100.00
44103;BME280;29769;42.178;24.742;2022-07-23T03:19:35;99737.41;;;18.69;100.00
44103;BME280;29769;42.178;24.742;2022-07-23T03:22:21;99740.00;;;18.70;100.00
44103;BME280;29769;42.178;24.742;2022-07-23T03:25:06;99740.94;;;18.69;100.00
44103;BME280;29769;42.178;24.742;2022-07-23T03:27:53;99738.09;;;18.72;100.00
44103;BME280;29769;42.178;24.742;2022-07-23T03:30:38;99738.91;;;18.74;100.00
44103;BME280;29769;42.178;24.742;2022-07-23T03:33:22;99738.97;;;18.73;100.00
44103;BME280;29769;42.178;24.742;2022-07-23T03:36:07;99747.91;;;18.72;100.00
44103;BME280;29769;42.178;24.742;2022-07-23T03:38:56;99749.41;;;18.77;100.00
44103;BME280;29769;42.178;24.742;2022-07-23T03:41:41;99749.13;;;18.83;100.00
44103;BME280;29769;42.178;24.742;2022-07-23T03:44:25;99751.19;;;18.95;100.00
44103;BME280;29769;42.178;24.742;2022-07-23T03:47:10;99752.78;;;18.99;100.00
44103;BME280;29769;42.178;24.742;2022-07-23T03:49:54;99751.78;;;19.02;100.00
44103;BME280;29769;42.178;24.742;2022-07-23T03:52:39;99747.94;;;19.07;100.00
44103;BME280;29769;42.178;24.742;2022-07-23T03:55:24;99751.97;;;19.16;100.00
44103;BME280;29769;42.178;24.742;2022-07-23T03:58:09;99744.38;;;19.26;100.00
44103;BME280;29769;42.178;24.742;2022-07-23T04:00:54;99752.75;;;19.35;100.00
44103;BME280;29769;42.178;24.742;2022-07-23T04:03:39;99735.06;;;19.34;100.00
44103;BME280;29769;42.178;24.742;2022-07-23T04:06:24;99748.16;;;19.39;100.00
44103;BME280;29769;42.178;24.742;2022-07-23T04:09:10;99748.84;;;19.42;100.00
44103;BME280;29769;42.178;24.742;2022-07-23T04:11:55;99752.47;;;19.41;100.00
44103;BME280;29769;42.178;24.742;2022-07-23T04:14:39;99748.72;;;19.45;100.00
44103;BME280;29769;42.178;24.742;2022-07-23T04:17:24;99751.84;;;19.53;100.00
44103;BME280;29769;42.178;24.742;2022-07-23T04:20:10;99753.94;;;19.66;100.00
44103;BME280;29769;42.178;24.742;2022-07-23T04:23:02;99740.97;;;19.75;100.00
44103;BME280;29769;42.178;24.742;2022-07-23T04:25:47;99750.44;;;19.98;100.00
44103;BME280;29769;42.178;24.742;2022-07-23T04:28:32;99747.25;;;20.24;100.00
44103;BME280;29769;42.178;24.742;2022-07-23T04:31:16;99751.94;;;20.36;100.00
44103;BME280;29769;42.178;24.742;2022-07-23T04:34:01;99750.34;;;20.50;100.00
44103;BME280;29769;42.178;24.742;2022-07-23T04:36:45;99755.78;;;20.64;99.36
44103;BME280;29769;42.178;24.742;2022-07-23T04:39:31;99754.44;;;20.88;98.95
44103;BME280;29769;42.178;24.742;2022-07-23T04:42:17;99755.19;;;21.06;97.09
44103;BME280;29769;42.178;24.742;2022-07-23T04:45:02;99754.50;;;21.18;96.15
44103;BME280;29769;42.178;24.742;2022-07-23T04:47:48;99755.19;;;21.37;94.53
44103;BME280;29769;42.178;24.742;2022-07-23T04:50:33;99746.84;;;21.57;93.22
44103;BME280;29769;42.178;24.742;2022-07-23T04:53:17;99755.31;;;21.80;92.24
44103;BME280;29769;42.178;24.742;2022-07-23T04:56:05;99751.94;;;22.06;92.05
44103;BME280;29769;42.178;24.742;2022-07-23T04:58:51;99751.56;;;22.26;89.30
44103;BME280;29769;42.178;24.742;2022-07-23T05:01:35;99743.81;;;22.36;87.85
44103;BME280;29769;42.178;24.742;2022-07-23T05:04:20;99746.91;;;22.44;86.90
44103;BME280;29769;42.178;24.742;2022-07-23T05:07:05;99744.69;;;22.50;83.11
44103;BME280;29769;42.178;24.742;2022-07-23T05:09:51;99753.31;;;22.70;84.72
44103;BME280;29769;42.178;24.742;2022-07-23T05:12:36;99755.19;;;22.82;84.44
44103;BME280;29769;42.178;24.742;2022-07-23T05:15:20;99757.56;;;23.00;82.05
44103;BME280;29769;42.178;24.742;2022-07-23T05:18:05;99753.22;;;23.12;78.42
44103;BME280;29769;42.178;24.742;2022-07-23T05:20:50;99749.25;;;23.18;77.86
44103;BME280;29769;42.178;24.742;2022-07-23T05:23:38;99739.47;;;23.43;76.27
44103;BME280;29769;42.178;24.742;2022-07-23T05:26:23;99745.41;;;23.48;74.96
44103;BME280;29769;42.178;24.742;2022-07-23T05:29:08;99741.47;;;23.67;75.39
44103;BME280;29769;42.178;24.742;2022-07-23T05:31:53;99728.19;;;23.78;73.92
44103;BME280;29769;42.178;24.742;2022-07-23T05:34:38;99737.97;;;23.91;72.77
44103;BME280;29769;42.178;24.742;2022-07-23T05:37:24;99732.28;;;24.09;72.61
44103;BME280;29769;42.178;24.742;2022-07-23T05:40:09;99732.44;;;24.20;71.94
44103;BME280;29769;42.178;24.742;2022-07-23T05:42:55;99731.88;;;24.40;71.32
44103;BME280;29769;42.178;24.742;2022-07-23T05:45:39;99734.44;;;24.54;69.82
44103;BME280;29769;42.178;24.742;2022-07-23T05:48:24;99732.03;;;24.62;69.76
44103;BME280;29769;42.178;24.742;2022-07-23T05:51:21;99742.47;;;24.67;69.13
44103;BME280;29769;42.178;24.742;2022-07-23T05:54:07;99733.69;;;25.01;68.93
44103;BME280;29769;42.178;24.742;2022-07-23T05:56:55;99741.56;;;25.28;66.31
44103;BME280;29769;42.178;24.742;2022-07-23T05:59:39;99745.13;;;25.40;66.33
44103;BME280;29769;42.178;24.742;2022-07-23T06:02:24;99743.38;;;25.51;64.71
44103;BME280;29769;42.178;24.742;2022-07-23T06:05:10;99738.44;;;25.69;63.14
44103;BME280;29769;42.178;24.742;2022-07-23T06:07:56;99735.91;;;25.90;62.93
44103;BME280;29769;42.178;24.742;2022-07-23T06:10:42;99732.28;;;26.02;63.01
44103;BME280;29769;42.178;24.742;2022-07-23T06:13:27;99732.78;;;26.18;63.06
44103;BME280;29769;42.178;24.742;2022-07-23T06:16:12;99734.50;;;26.19;60.11
44103;BME280;29769;42.178;24.742;2022-07-23T06:18:57;99729.50;;;26.26;60.53
44103;BME280;29769;42.178;24.742;2022-07-23T06:21:44;99727.19;;;26.32;59.90
44103;BME280;29769;42.178;24.742;2022-07-23T06:24:29;99733.84;;;26.62;59.63
44103;BME280;29769;42.178;24.742;2022-07-23T06:27:14;99740.44;;;26.91;59.85
44103;BME280;29769;42.178;24.742;2022-07-23T06:29:59;99743.56;;;27.18;58.29
44103;BME280;29769;42.178;24.742;2022-07-23T06:32:44;99732.59;;;27.31;56.21
44103;BME280;29769;42.178;24.742;2022-07-23T06:35:29;99736.72;;;27.57;56.24
44103;BME280;29769;42.178;24.742;2022-07-23T06:38:14;99719.38;;;27.60;54.97
44103;BME280;29769;42.178;24.742;2022-07-23T06:40:59;99731.59;;;27.75;55.29
44103;BME280;29769;42.178;24.742;2022-07-23T06:43:44;99724.66;;;28.03;53.27
44103;BME280;29769;42.178;24.742;2022-07-23T06:46:30;99722.63;;;28.16;52.93
44103;BME280;29769;42.178;24.742;2022-07-23T06:49:14;99715.91;;;28.10;52.36
44103;BME280;29769;42.178;24.742;2022-07-23T06:51:59;99712.00;;;28.24;51.88
44103;BME280;29769;42.178;24.742;2022-07-23T06:54:44;99709.19;;;28.35;49.48
44103;BME280;29769;42.178;24.742;2022-07-23T06:57:28;99712.84;;;28.55;49.54
44103;BME280;29769;42.178;24.742;2022-07-23T07:00:13;99703.97;;;28.53;47.96
44103;BME280;29769;42.178;24.742;2022-07-23T07:02:58;99709.25;;;28.85;48.27
44103;BME280;29769;42.178;24.742;2022-07-23T07:05:43;99709.44;;;29.12;47.34
44103;BME280;29769;42.178;24.742;2022-07-23T07:08:27;99702.50;;;29.29;46.32
44103;BME280;29769;42.178;24.742;2022-07-23T07:11:12;99700.91;;;29.26;42.18
44103;BME280;29769;42.178;24.742;2022-07-23T07:13:56;99696.81;;;29.32;42.02
44103;BME280;29769;42.178;24.742;2022-07-23T07:16:41;99696.50;;;29.44;42.56
44103;BME280;29769;42.178;24.742;2022-07-23T07:19:26;99692.97;;;29.34;42.51
44103;BME280;29769;42.178;24.742;2022-07-23T07:22:10;99699.94;;;29.46;41.96
44103;BME280;29769;42.178;24.742;2022-07-23T07:24:55;99690.78;;;29.67;42.06
44103;BME280;29769;42.178;24.742;2022-07-23T07:27:40;99694.34;;;29.96;41.66
44103;BME280;29769;42.178;24.742;2022-07-23T07:30:24;99684.44;;;30.14;40.37
44103;BME280;29769;42.178;24.742;2022-07-23T07:33:09;99689.84;;;30.24;40.51
44103;BME280;29769;42.178;24.742;2022-07-23T07:35:54;99683.75;;;30.49;39.83
44103;BME280;29769;42.178;24.742;2022-07-23T07:38:38;99688.47;;;30.57;38.84
44103;BME280;29769;42.178;24.742;2022-07-23T07:41:23;99682.22;;;30.46;37.70
44103;BME280;29769;42.178;24.742;2022-07-23T07:44:08;99682.75;;;30.77;37.86
44103;BME280;29769;42.178;24.742;2022-07-23T07:46:53;99675.59;;;31.04;36.53
44103;BME280;29769;42.178;24.742;2022-07-23T07:49:38;99674.84;;;31.29;36.03
44103;BME280;29769;42.178;24.742;2022-07-23T07:52:22;99675.53;;;31.31;35.89
44103;BME280;29769;42.178;24.742;2022-07-23T07:55:08;99667.63;;;31.55;34.42
44103;BME280;29769;42.178;24.742;2022-07-23T07:57:53;99666.88;;;31.89;34.18
44103;BME280;29769;42.178;24.742;2022-07-23T08:00:38;99666.59;;;32.00;33.14
44103;BME280;29769;42.178;24.742;2022-07-23T08:03:22;99659.00;;;32.29;33.11
44103;BME280;29769;42.178;24.742;2022-07-23T08:06:07;99662.16;;;32.58;33.50
44103;BME280;29769;42.178;24.742;2022-07-23T08:08:51;99666.91;;;32.98;32.75
44103;BME280;29769;42.178;24.742;2022-07-23T08:11:36;99659.50;;;33.49;32.47
44103;BME280;29769;42.178;24.742;2022-07-23T08:14:20;99656.25;;;34.10;30.01
44103;BME280;29769;42.178;24.742;2022-07-23T08:17:05;99650.59;;;34.12;29.08
44103;BME280;29769;42.178;24.742;2022-07-23T08:19:50;99660.22;;;34.55;29.31
44103;BME280;29769;42.178;24.742;2022-07-23T08:22:44;99648.78;;;34.90;28.62
44103;BME280;29769;42.178;24.742;2022-07-23T08:25:39;99654.88;;;34.69;28.93
44103;BME280;29769;42.178;24.742;2022-07-23T08:28:24;99642.72;;;34.33;28.58
44103;BME280;29769;42.178;24.742;2022-07-23T08:31:09;99643.34;;;33.88;29.40
44103;BME280;29769;42.178;24.742;2022-07-23T08:33:55;99638.53;;;33.90;29.15
44103;BME280;29769;42.178;24.742;2022-07-23T08:36:41;99636.50;;;33.60;29.86
44103;BME280;29769;42.178;24.742;2022-07-23T08:39:26;99636.88;;;33.73;30.24
44103;BME280;29769;42.178;24.742;2022-07-23T08:42:13;99623.06;;;33.74;29.94
44103;BME280;29769;42.178;24.742;2022-07-23T08:44:58;99622.47;;;34.11;29.16
44103;BME280;29769;42.178;24.742;2022-07-23T08:47:42;99621.31;;;33.89;29.21
44103;BME280;29769;42.178;24.742;2022-07-23T08:50:27;99623.34;;;33.95;28.83
44103;BME280;29769;42.178;24.742;2022-07-23T08:53:12;99631.31;;;34.21;29.54
44103;BME280;29769;42.178;24.742;2022-07-23T08:55:57;99627.47;;;34.47;28.76
44103;BME280;29769;42.178;24.742;2022-07-23T08:58:42;99623.22;;;34.83;28.89
44103;BME280;29769;42.178;24.742;2022-07-23T09:01:26;99624.66;;;34.94;28.23
44103;BME280;29769;42.178;24.742;2022-07-23T09:04:11;99614.06;;;35.21;28.13
44103;BME280;29769;42.178;24.742;2022-07-23T09:06:55;99613.59;;;35.41;27.67
44103;BME280;29769;42.178;24.742;2022-07-23T09:09:40;99609.34;;;35.53;26.76
44103;BME280;29769;42.178;24.742;2022-07-23T09:12:25;99609.28;;;35.84;26.38
44103;BME280;29769;42.178;24.742;2022-07-23T09:15:10;99611.94;;;36.21;25.08
44103;BME280;29769;42.178;24.742;2022-07-23T09:17:55;99603.72;;;36.50;23.53
44103;BME280;29769;42.178;24.742;2022-07-23T09:20:40;99606.16;;;36.75;24.21
44103;BME280;29769;42.178;24.742;2022-07-23T09:23:36;99605.41;;;37.23;24.24
44103;BME280;29769;42.178;24.742;2022-07-23T09:29:21;99598.94;;;38.01;22.50
44103;BME280;29769;42.178;24.742;2022-07-23T09:32:13;99601.91;;;38.95;21.30
44103;BME280;29769;42.178;24.742;2022-07-23T09:34:58;99598.13;;;40.14;20.07
44103;BME280;29769;42.178;24.742;2022-07-23T09:37:42;99588.16;;;40.84;20.16
44103;BME280;29769;42.178;24.742;2022-07-23T09:40:44;99595.03;;;41.38;18.95
44103;BME280;29769;42.178;24.742;2022-07-23T09:43:30;99592.06;;;42.80;18.79
44103;BME280;29769;42.178;24.742;2022-07-23T09:49:09;99582.81;;;43.80;17.08
44103;BME280;29769;42.178;24.742;2022-07-23T09:51:57;99577.25;;;45.52;15.53
44103;BME280;29769;42.178;24.742;2022-07-23T09:54:42;99586.03;;;46.81;13.51
44103;BME280;29769;42.178;24.742;2022-07-23T09:57:27;99577.19;;;45.02;13.51
44103;BME280;29769;42.178;24.742;2022-07-23T10:00:12;99575.56;;;45.51;13.67
44103;BME280;29769;42.178;24.742;2022-07-23T10:02:58;99571.28;;;44.58;14.80
44103;BME280;29769;42.178;24.742;2022-07-23T10:05:47;99576.56;;;43.73;14.52
44103;BME280;29769;42.178;24.742;2022-07-23T10:08:51;99574.78;;;45.89;13.71
44103;BME280;29769;42.178;24.742;2022-07-23T10:11:57;99575.41;;;46.51;13.09
44103;BME280;29769;42.178;24.742;2022-07-23T10:15:15;99574.00;;;47.56;12.88
44103;BME280;29769;42.178;24.742;2022-07-23T10:17:59;99564.31;;;47.32;12.54
44103;BME280;29769;42.178;24.742;2022-07-23T10:20:44;99572.31;;;46.96;13.10
44103;BME280;29769;42.178;24.742;2022-07-23T10:23:33;99562.78;;;47.19;12.57
44103;BME280;29769;42.178;24.742;2022-07-23T10:26:21;99560.84;;;47.83;12.71
44103;BME280;29769;42.178;24.742;2022-07-23T10:34:52;99559.34;;;50.86;10.47
44103;BME280;29769;42.178;24.742;2022-07-23T10:37:40;99553.69;;;51.64;9.98
44103;BME280;29769;42.178;24.742;2022-07-23T10:40:26;99547.59;;;52.14;9.47
44103;BME280;29769;42.178;24.742;2022-07-23T10:43:13;99539.63;;;52.64;9.37
44103;BME280;29769;42.178;24.742;2022-07-23T10:49:29;99533.28;;;53.79;9.10
44103;BME280;29769;42.178;24.742;2022-07-23T10:57:47;99525.72;;;54.56;8.42
44103;BME280;29769;42.178;24.742;2022-07-23T11:00:33;99524.78;;;55.11;7.75
44103;BME280;29769;42.178;24.742;2022-07-23T11:03:36;99519.06;;;55.02;7.63
44103;BME280;29769;42.178;24.742;2022-07-23T11:06:21;99510.78;;;54.20;8.38
44103;BME280;29769;42.178;24.742;2022-07-23T11:20:36;99500.31;;;53.01;8.20
44103;BME280;29769;42.178;24.742;2022-07-23T11:23:20;99495.00;;;52.43;9.12
44103;BME280;29769;42.178;24.742;2022-07-23T11:26:05;99492.03;;;52.72;8.81
44103;BME280;29769;42.178;24.742;2022-07-23T11:28:50;99491.03;;;53.52;8.52
44103;BME280;29769;42.178;24.742;2022-07-23T11:31:35;99489.56;;;53.68;8.46
44103;BME280;29769;42.178;24.742;2022-07-23T11:34:24;99482.59;;;53.65;8.00
44103;BME280;29769;42.178;24.742;2022-07-23T11:37:10;99484.47;;;52.92;8.82
44103;BME280;29769;42.178;24.742;2022-07-23T11:39:56;99482.00;;;51.81;9.02
44103;BME280;29769;42.178;24.742;2022-07-23T11:45:59;99475.38;;;51.14;9.22
44103;BME280;29769;42.178;24.742;2022-07-23T11:48:44;99480.72;;;50.72;9.25
44103;BME280;29769;42.178;24.742;2022-07-23T11:51:29;99466.91;;;49.57;9.98
44103;BME280;29769;42.178;24.742;2022-07-23T11:54:16;99465.72;;;49.88;9.72
44103;BME280;29769;42.178;24.742;2022-07-23T11:57:00;99465.53;;;50.34;10.21
44103;BME280;29769;42.178;24.742;2022-07-23T11:59:46;99466.31;;;49.75;9.90
44103;BME280;29769;42.178;24.742;2022-07-23T12:02:31;99456.56;;;48.46;10.33
44103;BME280;29769;42.178;24.742;2022-07-23T12:05:23;99454.16;;;48.08;10.74
44103;BME280;29769;42.178;24.742;2022-07-23T12:08:09;99453.69;;;48.31;10.33
44103;BME280;29769;42.178;24.742;2022-07-23T12:10:54;99453.81;;;47.94;11.03
44103;BME280;29769;42.178;24.742;2022-07-23T12:13:39;99451.94;;;48.05;10.79
44103;BME280;29769;42.178;24.742;2022-07-23T12:16:24;99451.63;;;49.09;10.31
44103;BME280;29769;42.178;24.742;2022-07-23T12:19:09;99440.19;;;47.98;10.48
44103;BME280;29769;42.178;24.742;2022-07-23T12:21:53;99435.06;;;48.52;10.60
44103;BME280;29769;42.178;24.742;2022-07-23T12:24:54;99435.38;;;48.96;9.89
44103;BME280;29769;42.178;24.742;2022-07-23T12:27:39;99428.94;;;48.60;10.16
44103;BME280;29769;42.178;24.742;2022-07-23T12:30:25;99425.34;;;48.90;10.10
44103;BME280;29769;42.178;24.742;2022-07-23T12:33:14;99419.44;;;49.37;9.71
44103;BME280;29769;42.178;24.742;2022-07-23T12:36:01;99413.66;;;49.98;9.76
44103;BME280;29769;42.178;24.742;2022-07-23T12:38:47;99406.50;;;49.76;9.58
44103;BME280;29769;42.178;24.742;2022-07-23T12:41:51;99405.59;;;50.40;9.51
44103;BME280;29769;42.178;24.742;2022-07-23T12:44:37;99407.25;;;50.85;9.34
44103;BME280;29769;42.178;24.742;2022-07-23T12:47:21;99407.94;;;50.67;9.20
44103;BME280;29769;42.178;24.742;2022-07-23T12:50:06;99399.81;;;49.72;9.60
44103;BME280;29769;42.178;24.742;2022-07-23T12:53:00;99400.75;;;50.12;9.58
44103;BME280;29769;42.178;24.742;2022-07-23T12:55:45;99395.75;;;49.99;10.10
44103;BME280;29769;42.178;24.742;2022-07-23T12:58:40;99387.31;;;49.39;9.96
44103;BME280;29769;42.178;24.742;2022-07-23T13:01:27;99386.22;;;48.95;10.09
44103;BME280;29769;42.178;24.742;2022-07-23T13:04:14;99380.38;;;48.86;10.55
44103;BME280;29769;42.178;24.742;2022-07-23T13:07:00;99379.81;;;48.89;10.45
44103;BME280;29769;42.178;24.742;2022-07-23T13:09:45;99372.81;;;48.67;10.93
44103;BME280;29769;42.178;24.742;2022-07-23T13:12:30;99368.03;;;48.32;10.33
44103;BME280;29769;42.178;24.742;2022-07-23T13:15:14;99375.19;;;47.92;10.66
44103;BME280;29769;42.178;24.742;2022-07-23T13:17:59;99366.03;;;47.97;10.63
44103;BME280;29769;42.178;24.742;2022-07-23T13:20:44;99376.88;;;47.98;10.41
44103;BME280;29769;42.178;24.742;2022-07-23T13:23:29;99364.75;;;47.15;10.74
44103;BME280;29769;42.178;24.742;2022-07-23T13:26:14;99360.69;;;47.33;10.99
44103;BME280;29769;42.178;24.742;2022-07-23T13:28:58;99357.38;;;47.41;11.03
44103;BME280;29769;42.178;24.742;2022-07-23T13:31:43;99357.94;;;47.38;10.80
44103;BME280;29769;42.178;24.742;2022-07-23T13:34:27;99361.47;;;47.86;10.96
44103;BME280;29769;42.178;24.742;2022-07-23T13:37:12;99352.00;;;47.29;11.36
44103;BME280;29769;42.178;24.742;2022-07-23T13:39:57;99361.66;;;46.80;11.39
44103;BME280;29769;42.178;24.742;2022-07-23T13:42:41;99345.22;;;44.27;13.08
44103;BME280;29769;42.178;24.742;2022-07-23T13:45:27;99351.09;;;43.63;13.57
44103;BME280;29769;42.178;24.742;2022-07-23T13:48:12;99350.19;;;44.42;13.08
44103;BME280;29769;42.178;24.742;2022-07-23T13:50:57;99354.75;;;45.15;12.85
44103;BME280;29769;42.178;24.742;2022-07-23T13:53:43;99355.78;;;45.91;12.29
44103;BME280;29769;42.178;24.742;2022-07-23T13:56:31;99353.66;;;46.25;11.98
44103;BME280;29769;42.178;24.742;2022-07-23T13:59:15;99350.75;;;45.28;12.87
44103;BME280;29769;42.178;24.742;2022-07-23T14:02:03;99350.72;;;45.06;12.37
44103;BME280;29769;42.178;24.742;2022-07-23T14:04:50;99351.41;;;44.63;12.40
44103;BME280;29769;42.178;24.742;2022-07-23T14:07:35;99349.19;;;44.82;12.28
44103;BME280;29769;42.178;24.742;2022-07-23T14:10:21;99344.00;;;45.40;12.16
44103;BME280;29769;42.178;24.742;2022-07-23T14:13:06;99351.63;;;45.50;12.20
44103;BME280;29769;42.178;24.742;2022-07-23T14:15:50;99349.84;;;45.22;12.55
44103;BME280;29769;42.178;24.742;2022-07-23T14:18:35;99346.53;;;45.64;12.17
44103;BME280;29769;42.178;24.742;2022-07-23T14:21:21;99348.41;;;45.58;12.90
44103;BME280;29769;42.178;24.742;2022-07-23T14:24:06;99349.56;;;45.02;12.88
44103;BME280;29769;42.178;24.742;2022-07-23T14:26:50;99351.50;;;45.40;12.84
44103;BME280;29769;42.178;24.742;2022-07-23T14:29:35;99343.47;;;45.05;12.68
44103;BME280;29769;42.178;24.742;2022-07-23T14:32:20;99330.59;;;44.04;13.98
44103;BME280;29769;42.178;24.742;2022-07-23T14:35:05;99330.31;;;43.77;13.96
44103;BME280;29769;42.178;24.742;2022-07-23T14:37:50;99327.91;;;43.92;13.98
44103;BME280;29769;42.178;24.742;2022-07-23T14:40:35;99330.19;;;43.83;13.77
44103;BME280;29769;42.178;24.742;2022-07-23T14:43:19;99322.59;;;43.51;14.89
44103;BME280;29769;42.178;24.742;2022-07-23T14:46:04;99319.59;;;43.40;14.52
44103;BME280;29769;42.178;24.742;2022-07-23T14:48:48;99316.84;;;43.29;14.23
44103;BME280;29769;42.178;24.742;2022-07-23T14:51:33;99316.22;;;42.45;15.00
44103;BME280;29769;42.178;24.742;2022-07-23T14:54:18;99316.91;;;42.41;15.46
44103;BME280;29769;42.178;24.742;2022-07-23T14:57:04;99307.91;;;42.45;15.20
44103;BME280;29769;42.178;24.742;2022-07-23T14:59:49;99305.50;;;42.37;15.26